createdAt,value
2022-12-05T00:01:38.977Z,95.45
2022-12-05T00:04:09.325Z,95.53
2022-12-05T00:06:38.405Z,95.54
2022-12-05T00:09:07.563Z,95.91
2022-12-05T00:11:38.125Z,95.77
2022-12-05T00:14:09.578Z,95.28
2022-12-05T00:16:39.599Z,95.25
2022-12-05T00:19:09.619Z,94.95
2022-12-05T00:21:38.377Z,95.71
2022-12-05T00:24:08.801Z,95.07
2022-12-05T00:26:37.159Z,95.14
2022-12-05T00:29:05.451Z,95.39
2022-12-05T00:31:34.997Z,95.58
2022-12-05T00:34:04.181Z,95.88
2022-12-05T00:36:34.439Z,95.70
2022-12-05T00:39:05.175Z,95.38
2022-12-05T00:41:33.064Z,94.84
2022-12-05T00:44:02.300Z,94.83
2022-12-05T00:46:32.176Z,95.74
2022-12-05T00:49:02.919Z,95.14
2022-12-05T00:51:33.137Z,95.15
2022-12-05T00:54:02.684Z,95.30
2022-12-05T00:56:32.036Z,95.56
2022-12-05T00:59:02.297Z,95.84
2022-12-05T01:01:33.346Z,95.13
2022-12-05T01:04:06.455Z,95.22
2022-12-05T01:06:34.587Z,95.21
2022-12-05T01:09:02.570Z,95.79
2022-12-05T01:11:31.688Z,95.79
2022-12-05T01:14:01.115Z,95.23
2022-12-05T01:16:30.887Z,95.36
2022-12-05T01:19:00.153Z,95.26
2022-12-05T01:21:29.649Z,95.37
2022-12-05T01:23:58.309Z,95.28
2022-12-05T01:26:26.228Z,95.14
2022-12-05T01:28:54.482Z,94.92
2022-12-05T01:31:25.052Z,95.59
2022-12-05T01:33:53.997Z,95.35
2022-12-05T01:36:22.708Z,95.06
2022-12-05T01:38:52.373Z,95.52
2022-12-05T01:41:22.648Z,94.64
2022-12-05T01:44:02.864Z,94.74
2022-12-05T01:46:32.782Z,95.65
2022-12-05T01:49:04.987Z,95.03
2022-12-05T01:51:34.993Z,95.03
2022-12-05T01:54:06.138Z,94.94
2022-12-05T01:56:34.439Z,95.48
2022-12-05T01:59:04.139Z,95.19
2022-12-05T02:01:32.740Z,94.79
2022-12-05T02:04:01.107Z,95.43
2022-12-05T02:06:29.579Z,95.12
2022-12-05T02:08:57.461Z,94.82
2022-12-05T02:11:30.220Z,95.09
2022-12-05T02:14:21.363Z,95.28
2022-12-05T02:16:56.636Z,95.10
2022-12-05T02:19:51.511Z,94.99
2022-12-05T02:22:43.965Z,95.13
2022-12-05T02:25:41.293Z,95.82
2022-12-05T02:28:31.538Z,95.79
2022-12-05T02:31:06.768Z,95.61
2022-12-05T02:33:40.298Z,95.69
2022-12-05T02:36:12.683Z,95.54
2022-12-05T02:38:47.407Z,96.19
2022-12-05T02:41:23.505Z,96.14
2022-12-05T02:43:56.801Z,95.50
2022-12-05T02:46:30.198Z,95.71
2022-12-05T02:49:01.446Z,95.74
2022-12-05T02:51:34.802Z,95.69
2022-12-05T02:54:07.196Z,95.73
2022-12-05T02:56:37.151Z,96.27
2022-12-05T02:59:05.009Z,95.76
2022-12-05T03:01:34.659Z,96.16
2022-12-05T03:04:07.506Z,96.14
2022-12-05T03:06:40.270Z,96.78
2022-12-05T03:09:13.534Z,96.11
2022-12-05T03:11:47.607Z,96.37
2022-12-05T03:14:23.990Z,96.07
2022-12-05T03:16:56.198Z,95.83
2022-12-05T03:19:28.166Z,95.84
2022-12-05T03:22:02.672Z,96.22
2022-12-05T03:24:32.436Z,95.96
2022-12-05T03:27:10.633Z,96.27
2022-12-05T03:29:47.794Z,96.51
2022-12-05T03:32:24.099Z,96.56
2022-12-05T03:35:04.655Z,96.85
2022-12-05T03:37:43.061Z,96.77
2022-12-05T03:40:18.722Z,96.44
2022-12-05T03:42:55.227Z,96.17
2022-12-05T03:45:30.023Z,96.69
2022-12-05T03:48:05.542Z,96.58
2022-12-05T03:50:36.384Z,96.43
2022-12-05T03:53:19.562Z,96.77
2022-12-05T03:55:52.283Z,96.17
2022-12-05T03:58:27.224Z,96.38
2022-12-05T04:00:58.304Z,96.37
2022-12-05T04:03:39.558Z,96.30
2022-12-05T04:06:13.657Z,97.32
2022-12-05T04:08:45.386Z,97.19
2022-12-05T04:11:17.484Z,96.92
2022-12-05T04:13:48.855Z,96.74
2022-12-05T04:16:39.232Z,96.65
2022-12-05T04:19:13.265Z,96.75
2022-12-05T04:21:45.170Z,96.61
2022-12-05T04:24:35.608Z,96.63
2022-12-05T04:27:11.798Z,96.71
2022-12-05T04:29:46.940Z,96.46
2022-12-05T04:32:15.774Z,96.95
2022-12-05T04:34:55.341Z,97.35
2022-12-05T04:37:26.334Z,96.86
2022-12-05T04:40:00.112Z,97.23
2022-12-05T04:42:32.046Z,97.30
2022-12-05T04:45:04.431Z,97.06
2022-12-05T04:47:36.704Z,97.85
2022-12-05T04:50:09.828Z,97.63
2022-12-05T04:52:38.665Z,97.86
2022-12-05T04:55:10.833Z,97.58
2022-12-05T04:57:44.794Z,97.71
2022-12-05T05:00:13.567Z,97.56
2022-12-05T05:02:46.662Z,97.94
2022-12-05T05:05:19.556Z,97.71
2022-12-05T05:07:49.289Z,97.40
2022-12-05T05:10:23.658Z,97.26
2022-12-05T05:12:51.566Z,97.44
2022-12-05T05:15:21.072Z,97.49
2022-12-05T05:17:48.906Z,97.65
2022-12-05T05:20:28.208Z,97.74
2022-12-05T05:22:57.409Z,98.27
2022-12-05T05:25:26.053Z,97.47
2022-12-05T05:27:56.281Z,97.75
2022-12-05T05:30:25.719Z,98.27
2022-12-05T05:32:54.148Z,98.29
2022-12-05T05:35:23.672Z,98.56
2022-12-05T05:37:51.853Z,97.90
2022-12-05T05:40:20.151Z,98.20
2022-12-05T05:42:50.750Z,97.78
2022-12-05T05:45:19.118Z,98.26
2022-12-05T05:47:49.306Z,97.71
2022-12-05T05:50:21.512Z,98.02
2022-12-05T05:52:51.322Z,98.46
2022-12-05T05:55:19.418Z,98.06
2022-12-05T05:57:47.512Z,98.39
2022-12-05T06:00:17.126Z,98.75
2022-12-05T06:02:45.052Z,97.83
2022-12-05T06:05:13.198Z,98.17
2022-12-05T06:07:41.064Z,98.56
2022-12-05T06:10:11.156Z,98.80
2022-12-05T06:12:39.132Z,98.94
2022-12-05T06:15:08.803Z,98.34
2022-12-05T06:17:36.751Z,98.75
2022-12-05T06:20:05.436Z,98.09
2022-12-05T06:22:33.515Z,98.29
2022-12-05T06:25:01.358Z,98.67
2022-12-05T06:27:32.994Z,98.30
2022-12-05T06:30:01.307Z,97.97
2022-12-05T06:32:30.208Z,98.34
2022-12-05T06:34:58.095Z,98.76
2022-12-05T06:37:25.993Z,98.84
2022-12-05T06:39:54.038Z,99.04
2022-12-05T06:42:22.470Z,98.91
2022-12-05T06:44:51.889Z,98.03
2022-12-05T06:47:19.858Z,98.34
2022-12-05T06:49:47.667Z,98.67
2022-12-05T06:52:16.076Z,98.29
2022-12-05T06:54:43.877Z,98.91
2022-12-05T06:57:11.855Z,98.83
2022-12-05T06:59:39.637Z,99.28
2022-12-05T07:02:09.416Z,98.82
2022-12-05T07:04:37.302Z,98.56
2022-12-05T07:07:05.960Z,98.42
2022-12-05T07:09:48.650Z,99.00
2022-12-05T07:12:18.619Z,98.82
2022-12-05T07:14:48.990Z,98.25
2022-12-05T07:17:19.664Z,98.50
2022-12-05T07:19:49.790Z,98.59
2022-12-05T07:22:17.799Z,98.03
2022-12-05T07:24:46.341Z,98.13
2022-12-05T07:27:15.113Z,97.81
2022-12-05T07:29:43.010Z,98.25
2022-12-05T07:32:11.034Z,97.76
2022-12-05T07:34:40.312Z,98.19
2022-12-05T07:37:08.624Z,98.28
2022-12-05T07:39:36.614Z,98.47
2022-12-05T07:42:04.662Z,97.84
2022-12-05T07:44:32.702Z,97.90
2022-12-05T07:47:00.666Z,98.31
2022-12-05T07:49:28.915Z,98.64
2022-12-05T07:51:58.439Z,98.31
2022-12-05T07:54:26.269Z,98.18
2022-12-05T07:56:54.156Z,98.27
2022-12-05T07:59:22.005Z,98.99
2022-12-05T08:01:50.081Z,98.54
2022-12-05T08:04:18.071Z,97.96
2022-12-05T08:06:45.917Z,97.98
2022-12-05T08:09:15.224Z,98.00
2022-12-05T08:11:45.940Z,97.41
2022-12-05T08:14:16.135Z,97.98
2022-12-05T08:16:44.114Z,97.47
2022-12-05T08:19:17.094Z,97.64
2022-12-05T08:21:45.204Z,97.62
2022-12-05T08:24:13.332Z,97.24
2022-12-05T08:26:42.931Z,96.91
2022-12-05T08:29:13.194Z,97.13
2022-12-05T08:31:43.761Z,97.39
2022-12-05T08:34:13.641Z,96.94
2022-12-05T08:36:42.844Z,97.09
2022-12-05T08:39:15.038Z,97.11
2022-12-05T08:41:44.404Z,96.72
2022-12-05T08:44:16.415Z,96.55
2022-12-05T08:46:45.853Z,96.75
2022-12-05T08:49:14.231Z,96.96
2022-12-05T08:51:42.846Z,97.09
2022-12-05T08:54:11.259Z,97.26
2022-12-05T08:56:39.656Z,97.39
2022-12-05T08:59:09.615Z,97.03
2022-12-05T09:01:39.461Z,96.81
2022-12-05T09:04:08.548Z,97.09
2022-12-05T09:06:37.360Z,97.14
2022-12-05T09:09:08.175Z,96.67
2022-12-05T09:11:38.153Z,97.24
2022-12-05T09:14:06.762Z,97.36
2022-12-05T09:16:39.460Z,96.69
2022-12-05T09:19:12.111Z,96.62
2022-12-05T09:21:40.510Z,97.19
2022-12-05T09:24:08.615Z,97.22
2022-12-05T09:26:36.442Z,97.41
2022-12-05T09:29:04.567Z,96.98
2022-12-05T09:31:32.913Z,97.33
2022-12-05T09:34:02.470Z,96.91
2022-12-05T09:36:32.586Z,97.77
2022-12-05T09:39:02.045Z,97.57
2022-12-05T09:42:18.115Z,96.82
2022-12-05T09:44:58.179Z,97.14
2022-12-05T09:47:36.377Z,97.34
2022-12-05T09:50:17.520Z,97.87
2022-12-05T09:52:54.867Z,97.83
2022-12-05T09:55:22.984Z,98.20
2022-12-05T09:57:57.531Z,98.54
2022-12-05T10:00:27.551Z,97.73
2022-12-05T10:03:05.365Z,98.15
2022-12-05T10:05:41.815Z,98.04
2022-12-05T10:08:20.082Z,97.99
2022-12-05T10:10:58.294Z,97.78
2022-12-05T10:13:39.265Z,97.45
2022-12-05T10:16:12.710Z,98.10
2022-12-05T10:18:44.020Z,98.00
2022-12-05T10:21:19.679Z,97.59
2022-12-05T10:23:58.746Z,97.98
2022-12-05T10:26:30.625Z,97.66
2022-12-05T10:29:04.337Z,98.07
2022-12-05T10:31:38.907Z,98.56
2022-12-05T10:34:16.037Z,98.68
2022-12-05T10:36:56.015Z,98.21
2022-12-05T10:39:23.978Z,97.72
2022-12-05T10:41:52.006Z,97.92
2022-12-05T10:44:20.569Z,97.87
2022-12-05T10:46:49.635Z,98.11
2022-12-05T10:49:17.651Z,98.18
2022-12-05T10:51:47.995Z,98.71
2022-12-05T10:54:19.672Z,99.23
2022-12-05T10:56:50.198Z,98.42
2022-12-05T10:59:20.599Z,98.84
2022-12-05T11:01:52.336Z,98.33
2022-12-05T11:04:26.792Z,97.94
2022-12-05T11:07:00.416Z,97.85
2022-12-05T11:09:31.140Z,97.96
2022-12-05T11:12:07.583Z,98.02
2022-12-05T11:14:36.865Z,98.70
2022-12-05T11:17:06.827Z,98.65
2022-12-05T11:19:36.532Z,98.61
2022-12-05T11:22:08.032Z,98.75
2022-12-05T11:24:38.021Z,98.54
2022-12-05T11:27:22.425Z,98.43
2022-12-05T11:29:59.642Z,98.32
2022-12-05T11:32:29.153Z,98.05
2022-12-05T11:35:04.545Z,98.13
2022-12-05T11:37:38.993Z,97.39
2022-12-05T11:40:16.386Z,98.31
2022-12-05T11:43:03.134Z,97.61
2022-12-05T11:45:50.549Z,97.28
2022-12-05T11:48:42.678Z,97.69
2022-12-05T11:51:24.639Z,98.35
2022-12-05T11:54:12.331Z,98.36
2022-12-05T11:56:45.806Z,98.38
2022-12-05T11:59:36.801Z,97.23
2022-12-05T12:02:17.785Z,97.61
2022-12-05T12:04:51.766Z,97.04
2022-12-05T12:07:30.922Z,97.30
2022-12-05T12:10:12.193Z,96.82
2022-12-05T12:12:52.093Z,96.75
2022-12-05T12:15:38.497Z,96.72
2022-12-05T12:18:17.465Z,97.01
2022-12-05T12:20:57.524Z,97.10
2022-12-05T12:23:43.582Z,96.86
2022-12-05T12:26:16.447Z,96.80
2022-12-05T12:28:52.692Z,97.35
2022-12-05T12:31:44.553Z,97.26
2022-12-05T12:34:39.206Z,96.25
2022-12-05T12:37:15.220Z,97.31
2022-12-05T12:39:52.206Z,96.97
2022-12-05T12:42:26.653Z,96.52
2022-12-05T12:45:32.685Z,96.42
2022-12-05T12:48:14.123Z,96.88
2022-12-05T12:50:45.652Z,96.93
2022-12-05T12:53:32.771Z,96.82
2022-12-05T12:56:11.306Z,97.12
2022-12-05T12:58:48.589Z,96.18
2022-12-05T13:01:29.583Z,95.96
2022-12-05T13:04:02.910Z,96.94
2022-12-05T13:06:36.909Z,96.53
2022-12-05T13:09:08.894Z,97.09
2022-12-05T13:11:40.848Z,97.40
2022-12-05T13:14:14.910Z,97.04
2022-12-05T13:16:46.472Z,97.30
2022-12-05T13:19:30.463Z,97.15
2022-12-05T13:21:59.760Z,97.35
2022-12-05T13:24:29.412Z,97.09
2022-12-05T13:27:01.551Z,96.85
2022-12-05T13:29:35.602Z,96.72
2022-12-05T13:32:05.343Z,97.52
2022-12-05T13:34:47.588Z,97.04
2022-12-05T13:37:44.560Z,96.61
2022-12-05T13:40:45.781Z,96.87
2022-12-05T13:43:18.155Z,97.21
2022-12-05T13:46:02.246Z,97.16
2022-12-05T13:48:34.052Z,97.13
2022-12-05T13:51:07.829Z,97.33
2022-12-05T13:53:40.127Z,96.48
2022-12-05T13:56:24.900Z,96.53
2022-12-05T13:58:54.298Z,96.10
2022-12-05T14:01:56.015Z,95.68
2022-12-05T14:04:50.359Z,95.69
2022-12-05T14:11:21.263Z,95.64
2022-12-05T14:13:50.049Z,95.83
2022-12-05T14:16:50.447Z,95.88
2022-12-05T14:19:54.462Z,95.75
2022-12-05T14:22:35.445Z,96.25
2022-12-05T14:25:12.275Z,96.66
2022-12-05T14:27:55.777Z,96.01
2022-12-05T14:30:26.847Z,95.95
2022-12-05T14:32:55.829Z,96.17
2022-12-05T14:35:30.693Z,96.07
2022-12-05T14:38:02.493Z,96.32
2022-12-05T14:40:33.502Z,95.96
2022-12-05T14:43:04.382Z,95.80
2022-12-05T14:45:36.820Z,95.61
2022-12-05T14:48:07.620Z,96.05
2022-12-05T14:50:41.782Z,96.60
2022-12-05T14:53:24.388Z,96.52
2022-12-05T14:55:56.213Z,96.16
2022-12-05T14:58:35.255Z,96.31
2022-12-05T15:01:07.205Z,96.18
2022-12-05T15:03:39.587Z,96.17
2022-12-05T15:06:15.843Z,95.70
2022-12-05T15:08:48.855Z,96.06
2022-12-05T15:11:28.375Z,96.09
2022-12-05T15:14:01.073Z,96.16
2022-12-05T15:16:30.408Z,96.25
2022-12-05T15:19:03.251Z,95.98
2022-12-05T15:21:37.456Z,96.35
2022-12-05T15:24:12.344Z,96.47
2022-12-05T15:26:47.595Z,96.30
2022-12-05T15:29:18.786Z,96.08
2022-12-05T15:31:48.483Z,96.61
2022-12-05T15:34:20.133Z,96.54
2022-12-05T15:36:53.085Z,95.94
2022-12-05T15:39:25.922Z,96.47
2022-12-05T15:41:55.035Z,96.47
2022-12-05T15:44:27.710Z,96.42
2022-12-05T15:46:57.989Z,96.53
2022-12-05T15:49:27.956Z,96.69
2022-12-05T15:52:04.814Z,96.89
2022-12-05T15:54:35.170Z,96.98
2022-12-05T15:57:09.278Z,96.99
2022-12-05T15:59:42.144Z,96.83
2022-12-05T16:02:16.487Z,96.77
2022-12-05T16:04:50.157Z,96.57
2022-12-05T16:07:20.970Z,96.99
2022-12-05T16:09:49.044Z,96.56
2022-12-05T16:12:23.020Z,96.50
2022-12-05T16:15:01.216Z,96.60
2022-12-05T16:17:37.810Z,96.56
2022-12-05T16:20:24.877Z,96.61
2022-12-05T16:22:55.902Z,96.41
2022-12-05T16:25:26.105Z,96.65
2022-12-05T16:28:02.945Z,96.63
2022-12-05T16:30:31.765Z,96.88
2022-12-05T16:33:05.536Z,96.95
2022-12-05T16:35:36.995Z,96.97
2022-12-05T16:38:16.216Z,97.02
2022-12-05T16:41:03.494Z,96.47
2022-12-05T16:43:44.675Z,96.77
2022-12-05T16:46:44.197Z,96.70
2022-12-05T16:49:21.532Z,96.89
2022-12-05T16:51:56.647Z,97.09
2022-12-05T16:54:26.558Z,97.90
2022-12-05T16:56:54.867Z,97.41
2022-12-05T16:59:25.614Z,97.59
2022-12-05T17:01:53.966Z,97.66
2022-12-05T17:04:22.199Z,97.55
2022-12-05T17:06:50.482Z,97.43
2022-12-05T17:09:18.547Z,97.24
2022-12-05T17:11:50.513Z,97.82
2022-12-05T17:14:19.824Z,97.78
2022-12-05T17:16:48.145Z,97.54
2022-12-05T17:19:16.140Z,97.46
2022-12-05T17:21:44.759Z,97.46
2022-12-05T17:24:17.652Z,97.50
2022-12-05T17:26:47.639Z,97.34
2022-12-05T17:29:15.582Z,97.90
2022-12-05T17:31:43.507Z,97.89
2022-12-05T17:34:17.247Z,98.08
2022-12-05T17:36:46.198Z,97.85
2022-12-05T17:39:14.214Z,97.98
2022-12-05T17:41:42.065Z,97.98
2022-12-05T17:44:14.991Z,97.87
2022-12-05T17:46:44.509Z,97.95
2022-12-05T17:49:15.129Z,97.78
2022-12-05T17:52:05.489Z,97.99
2022-12-05T17:54:31.744Z,97.84
2022-12-05T17:56:59.785Z,97.88
2022-12-05T17:59:29.497Z,98.41
2022-12-05T18:01:57.722Z,98.44
2022-12-05T18:04:25.587Z,97.99
2022-12-05T18:06:53.406Z,98.10
2022-12-05T18:09:21.521Z,98.02
2022-12-05T18:11:49.460Z,98.33
2022-12-05T18:14:17.593Z,98.04
2022-12-05T18:16:47.002Z,97.87
2022-12-05T18:19:14.977Z,98.04
2022-12-05T18:21:43.111Z,98.03
2022-12-05T18:24:12.381Z,98.04
2022-12-05T18:26:40.340Z,98.45
2022-12-05T18:29:08.563Z,98.57
2022-12-05T18:31:38.450Z,98.57
2022-12-05T18:34:07.780Z,98.40
2022-12-05T18:36:36.028Z,98.16
2022-12-05T18:39:04.140Z,98.52
2022-12-05T18:41:32.269Z,98.53
2022-12-05T18:44:00.393Z,98.51
2022-12-05T18:46:28.480Z,98.51
2022-12-05T18:49:01.728Z,98.55
2022-12-05T18:51:33.083Z,98.70
2022-12-05T18:54:01.292Z,98.75
2022-12-05T18:56:31.900Z,98.79
2022-12-05T18:59:02.653Z,98.23
2022-12-05T19:01:32.465Z,99.06
2022-12-05T19:04:02.335Z,98.80
2022-12-05T19:06:33.347Z,98.86
2022-12-05T19:09:04.387Z,98.86
2022-12-05T19:11:33.856Z,98.68
2022-12-05T19:14:03.858Z,98.61
2022-12-05T19:16:34.203Z,98.66
2022-12-05T19:19:04.475Z,98.40
2022-12-05T19:21:34.812Z,98.24
2022-12-05T19:24:04.763Z,98.54
2022-12-05T19:26:32.956Z,98.48
2022-12-05T19:29:02.069Z,98.62
2022-12-05T19:31:30.714Z,98.44
2022-12-05T19:34:02.274Z,98.55
2022-12-05T19:36:31.711Z,98.92
2022-12-05T19:39:02.140Z,98.95
2022-12-05T19:41:31.371Z,98.98
2022-12-05T19:44:00.539Z,98.73
2022-12-05T19:46:30.261Z,99.06
2022-12-05T19:48:59.654Z,98.82
2022-12-05T19:51:28.246Z,99.49
2022-12-05T19:53:56.206Z,99.28
2022-12-05T19:56:27.682Z,98.68
2022-12-05T19:58:57.517Z,99.46
2022-12-05T20:01:28.376Z,99.58
2022-12-05T20:03:57.918Z,100.00
2022-12-05T20:06:26.630Z,99.76
2022-12-05T20:08:54.666Z,99.67
2022-12-05T20:11:26.512Z,99.48
2022-12-05T20:13:58.133Z,99.50
2022-12-05T20:16:27.676Z,99.61
2022-12-05T20:18:58.933Z,99.45
2022-12-05T20:21:28.910Z,99.18
2022-12-05T20:23:59.608Z,99.49
2022-12-05T20:26:30.613Z,99.60
2022-12-05T20:28:59.614Z,99.54
2022-12-05T20:31:29.572Z,99.67
2022-12-05T20:33:57.720Z,99.88
2022-12-05T20:36:27.698Z,99.59
2022-12-05T20:38:57.356Z,99.46
2022-12-05T20:41:25.820Z,99.90
2022-12-05T20:43:57.346Z,99.57
2022-12-05T20:46:25.564Z,99.26
2022-12-05T20:48:54.304Z,99.50
2022-12-05T20:51:24.242Z,99.40
2022-12-05T20:53:52.781Z,99.77
2022-12-05T20:56:22.548Z,99.38
2022-12-05T20:58:52.307Z,99.46
2022-12-05T21:01:22.861Z,99.83
2022-12-05T21:03:52.960Z,99.89
2022-12-05T21:06:25.827Z,100.00
2022-12-05T21:08:54.337Z,99.69
2022-12-05T21:11:22.600Z,100.00
2022-12-05T21:13:50.580Z,99.78
2022-12-05T21:16:20.144Z,99.63
2022-12-05T21:18:51.057Z,99.29
2022-12-05T21:21:21.046Z,99.80
2022-12-05T21:23:53.323Z,100.00
2022-12-05T21:26:22.106Z,99.96
2022-12-05T21:28:50.337Z,99.77
2022-12-05T21:31:20.186Z,99.71
2022-12-05T21:33:51.854Z,99.78
2022-12-05T21:36:20.800Z,99.85
2022-12-05T21:38:55.449Z,99.92
2022-12-05T21:41:24.100Z,100.00
2022-12-05T21:43:54.906Z,100.00
2022-12-05T21:46:24.202Z,100.00
2022-12-05T21:48:53.973Z,100.00
2022-12-05T21:51:22.880Z,100.00
2022-12-05T21:53:51.456Z,100.00
2022-12-05T21:56:22.948Z,100.00
2022-12-05T21:58:51.080Z,100.00
2022-12-05T22:01:20.699Z,100.00
2022-12-05T22:03:54.147Z,99.74
2022-12-05T22:06:23.575Z,100.00
2022-12-05T22:08:51.526Z,100.00
2022-12-05T22:11:21.045Z,100.00
2022-12-05T22:13:50.112Z,100.00
2022-12-05T22:16:19.565Z,100.00
2022-12-05T22:18:48.315Z,100.00
2022-12-05T22:21:18.401Z,100.00
2022-12-05T22:23:48.254Z,100.00
2022-12-05T22:26:18.255Z,100.00
2022-12-05T22:28:46.782Z,100.00
2022-12-05T22:31:16.725Z,100.00
2022-12-05T22:33:45.934Z,100.00
2022-12-05T22:36:16.628Z,100.00
2022-12-05T22:38:48.465Z,100.00
2022-12-05T22:41:18.484Z,100.00
2022-12-05T22:43:48.179Z,100.00
2022-12-05T22:46:18.944Z,100.00
2022-12-05T22:48:47.205Z,100.00
2022-12-05T22:51:16.081Z,100.00
2022-12-05T22:53:44.015Z,100.00
2022-12-05T22:56:15.585Z,100.00
2022-12-05T22:58:44.425Z,100.00
2022-12-05T23:01:14.616Z,100.00
2022-12-05T23:03:43.478Z,100.00
2022-12-05T23:06:12.805Z,100.00
2022-12-05T23:08:41.323Z,100.00
2022-12-05T23:11:10.317Z,100.00
2022-12-05T23:13:40.415Z,100.00
2022-12-05T23:16:10.301Z,100.00
2022-12-05T23:18:47.894Z,100.00
2022-12-05T23:21:18.074Z,100.00
2022-12-05T23:23:46.565Z,100.00
2022-12-05T23:26:15.407Z,100.00
2022-12-05T23:28:44.939Z,100.00
2022-12-05T23:31:13.658Z,100.00
2022-12-05T23:33:41.967Z,100.00
2022-12-05T23:36:10.909Z,100.00
2022-12-05T23:38:39.851Z,100.00
2022-12-05T23:41:09.644Z,100.00
2022-12-05T23:43:38.219Z,100.00
2022-12-05T23:46:08.142Z,100.00
2022-12-05T23:48:36.506Z,100.00
2022-12-05T23:51:07.166Z,100.00
2022-12-05T23:53:37.393Z,100.00
2022-12-05T23:56:08.356Z,100.00
2022-12-05T23:58:37.056Z,100.00
